Time;durP1;ratioP1;P1;durP2;ratioP2;P2;SDS_P1;SDS_P2;PMS_P1;PMS_P2;Temp;Humidity;BMP_temperature;BMP_pressure;BME280_temperature;BME280_humidity;BME280_pressure;Samples;Min_cycle;Max_cycle;Signal;HPM_P1;HPM_P2
2021/11/09 00:00:23;;;;;;;;;;;;;;;7.48;100.00;101786.69;5052241;28;19925;-73
2021/11/09 00:02:49;;;;;;;;;;;;;;;7.49;100.00;101774.91;5052355;28;19925;-74
2021/11/09 00:05:18;;;;;;;;;;;;;;;7.49;100.00;101774.91;5052264;28;19940;-74
2021/11/09 00:07:47;;;;;;;;;;;;;;;7.49;100.00;101774.91;5051059;28;19925;-73
2021/11/09 00:10:14;;;;;;;;;;;;;;;7.49;100.00;101777.59;5052110;28;20027;-73
2021/11/09 00:12:43;;;;;;;;;;;;;;;7.48;100.00;101777.69;5052021;28;20013;-74
2021/11/09 00:15:12;;;;;;;;;;;;;;;7.48;100.00;101789.38;5051989;28;20270;-74
2021/11/09 00:17:39;;;;;;;;;;;;;;;7.47;100.00;101787.63;5052014;28;19928;-73
2021/11/09 00:20:06;;;;;;;;;;;;;;;7.48;100.00;101788.50;5052018;28;19931;-74
2021/11/09 00:22:32;;;;;;;;;;;;;;;7.48;100.00;101794.78;5051853;28;19995;-75
2021/11/09 00:24:59;;;;;;;;;;;;;;;7.48;100.00;101800.19;5052359;28;19972;-73
2021/11/09 00:27:25;;;;;;;;;;;;;;;7.48;100.00;101792.09;5051799;28;19925;-74
2021/11/09 00:29:53;;;;;;;;;;;;;;;7.49;100.00;101799.22;5051635;28;19924;-73
2021/11/09 00:32:19;;;;;;;;;;;;;;;7.50;100.00;101806.38;5051756;28;19979;-73
2021/11/09 00:34:46;;;;;;;;;;;;;;;7.52;100.00;101811.69;5050310;28;20326;-74
2021/11/09 00:37:12;;;;;;;;;;;;;;;7.54;100.00;101812.50;5051961;28;20439;-72
2021/11/09 00:39:40;;;;;;;;;;;;;;;7.56;100.00;101809.72;5051271;28;19925;-72
2021/11/09 00:42:06;;;;;;;;;;;;;;;7.56;100.00;101810.59;5051667;28;19978;-74
2021/11/09 00:44:32;;;;;;;;;;;;;;;7.58;100.00;101813.22;5051365;28;19969;-74
2021/11/09 00:47:00;;;;;;;;;;;;;;;7.60;100.00;101824.81;5051409;28;19929;-73
2021/11/09 00:49:26;;;;;;;;;;;;;;;7.58;100.00;101821.34;5049850;28;20013;-73
2021/11/09 00:51:53;;;;;;;;;;;;;;;7.58;100.00;101822.19;5051627;28;20360;-73
2021/11/09 00:54:19;;;;;;;;;;;;;;;7.60;100.00;101824.81;5051422;28;19964;-73
2021/11/09 00:56:46;;;;;;;;;;;;;;;7.58;100.00;101824.03;5051283;28;19986;-73
2021/11/09 00:59:12;;;;;;;;;;;;;;;7.59;100.00;101817.66;5051203;28;19978;-73
2021/11/09 01:01:39;;;;;;;;;;;;;;;7.59;100.00;101817.66;5049755;28;20342;-73
2021/11/09 01:04:07;;;;;;;;;;;;;;;7.59;100.00;101818.56;5051007;28;19932;-73
2021/11/09 01:06:33;;;;;;;;;;;;;;;7.60;100.00;101819.41;5049898;28;19974;-73
2021/11/09 01:08:59;;;;;;;;;;;;;;;7.62;100.00;101822.94;5051554;28;19956;-73
2021/11/09 01:11:26;;;;;;;;;;;;;;;7.63;100.00;101819.25;5051317;28;20019;-73
2021/11/09 01:13:53;;;;;;;;;;;;;;;7.63;100.00;101825.53;5051018;28;19987;-73
2021/11/09 01:16:19;;;;;;;;;;;;;;;7.64;100.00;101824.59;5051255;28;20659;-73
2021/11/09 01:18:47;;;;;;;;;;;;;;;7.63;100.00;101827.34;5050254;28;19967;-73
2021/11/09 01:21:17;;;;;;;;;;;;;;;7.64;100.00;101829.09;5051079;28;19932;-73
2021/11/09 01:23:44;;;;;;;;;;;;;;;7.63;100.00;101827.34;5050501;28;19925;-73
2021/11/09 01:26:11;;;;;;;;;;;;;;;7.61;100.00;101816.63;5051027;28;19964;-73
2021/11/09 01:28:37;;;;;;;;;;;;;;;7.61;100.00;101813.06;5050545;28;20518;-73
2021/11/09 01:31:04;;;;;;;;;;;;;;;7.61;100.00;101815.75;5050699;28;20019;-73
2021/11/09 01:33:30;;;;;;;;;;;;;;;7.61;100.00;101811.22;5051042;28;19928;-73
2021/11/09 01:35:56;;;;;;;;;;;;;;;7.61;100.00;101811.22;5050644;28;19967;-73
2021/11/09 01:38:24;;;;;;;;;;;;;;;7.60;100.00;101806.75;5050486;28;20019;-73
2021/11/09 01:40:51;;;;;;;;;;;;;;;7.58;100.00;101800.59;5050707;28;20014;-73
2021/11/09 01:43:21;;;;;;;;;;;;;;;7.57;100.00;101800.66;5050338;28;19975;-72
2021/11/09 01:45:48;;;;;;;;;;;;;;;7.59;100.00;101809.56;5050563;28;19924;-72
2021/11/09 01:48:14;;;;;;;;;;;;;;;7.60;100.00;101803.19;5050280;28;19970;-73
2021/11/09 01:50:42;;;;;;;;;;;;;;;7.59;100.00;101806.84;5050700;28;20010;-73
2021/11/09 01:53:09;;;;;;;;;;;;;;;7.59;100.00;101810.44;5050451;28;19925;-72
2021/11/09 01:55:38;;;;;;;;;;;;;;;7.61;100.00;101807.66;5050730;28;19928;-72
2021/11/09 01:58:05;;;;;;;;;;;;;;;7.59;100.00;101810.44;5050307;28;20459;-72
2021/11/09 02:00:34;;;;;;;;;;;;;;;7.58;100.00;101808.69;5049893;28;20015;-72
2021/11/09 02:03:00;;;;;;;;;;;;;;;7.58;100.00;101815.94;5050611;28;19985;-74
2021/11/09 02:05:27;;;;;;;;;;;;;;;7.57;100.00;101809.63;5050337;28;19925;-72
2021/11/09 02:07:57;;;;;;;;;;;;;;;7.58;100.00;101815.94;5050461;28;19975;-72
2021/11/09 02:10:25;;;;;;;;;;;;;;;7.59;100.00;101814.97;5050308;28;19991;-72
2021/11/09 02:12:53;;;;;;;;;;;;;;;7.58;100.00;101821.34;5050490;28;19983;-72
2021/11/09 02:15:20;;;;;;;;;;;;;;;7.56;100.00;101823.22;5050449;28;20031;-73
2021/11/09 02:17:48;;;;;;;;;;;;;;;7.56;100.00;101826.78;5049020;28;19936;-73
2021/11/09 02:20:16;;;;;;;;;;;;;;;7.58;100.00;101829.44;5050032;28;19925;-73
2021/11/09 02:22:44;;;;;;;;;;;;;;;7.60;100.00;101820.28;5049999;28;19925;-72
2021/11/09 02:25:11;;;;;;;;;;;;;;;7.58;100.00;101832.16;5050389;28;20043;-72
2021/11/09 02:27:39;;;;;;;;;;;;;;;7.58;100.00;101833.00;5049858;28;20358;-72
2021/11/09 02:30:07;;;;;;;;;;;;;;;7.60;100.00;101838.31;5050198;28;19925;-72
2021/11/09 02:32:33;;;;;;;;;;;;;;;7.59;100.00;101840.16;5053089;28;19932;-73
2021/11/09 02:34:59;;;;;;;;;;;;;;;7.60;100.00;101839.19;5054009;28;20417;-73
2021/11/09 02:37:27;;;;;;;;;;;;;;;7.60;100.00;101843.72;5053670;28;19964;-73
2021/11/09 02:39:55;;;;;;;;;;;;;;;7.61;100.00;101843.66;5053635;28;19929;-73
2021/11/09 02:42:21;;;;;;;;;;;;;;;7.61;100.00;101842.78;5053954;28;19964;-73
2021/11/09 02:44:52;;;;;;;;;;;;;;;7.64;100.00;101842.63;5053659;28;19967;-73
2021/11/09 02:47:21;;;;;;;;;;;;;;;7.63;100.00;101846.28;5053914;28;20015;-73
2021/11/09 02:49:54;;;;;;;;;;;;;;;7.64;100.00;101856.13;5052786;28;19936;-73
2021/11/09 02:52:22;;;;;;;;;;;;;;;7.63;100.00;101857.97;5073676;28;20015;-73
2021/11/09 02:54:51;;;;;;;;;;;;;;;7.61;100.00;101862.56;5073657;28;20043;-73
2021/11/09 02:57:24;;;;;;;;;;;;;;;7.63;100.00;101867.88;5073274;28;19928;-73
2021/11/09 02:59:57;;;;;;;;;;;;;;;7.61;100.00;101870.69;5073398;28;19925;-73
2021/11/09 03:02:35;;;;;;;;;;;;;;;7.60;100.00;101868.06;5073544;28;19931;-73
2021/11/09 03:05:06;;;;;;;;;;;;;;;7.63;100.00;101873.28;5073619;28;19925;-73
2021/11/09 03:07:38;;;;;;;;;;;;;;;7.62;100.00;101875.13;5073202;28;19929;-73
2021/11/09 03:10:07;;;;;;;;;;;;;;;7.63;100.00;101873.28;5073369;28;20449;-73
2021/11/09 03:12:36;;;;;;;;;;;;;;;7.63;100.00;101878.69;5073258;28;19924;-73
2021/11/09 03:15:04;;;;;;;;;;;;;;;7.62;100.00;101874.28;5073043;28;19928;-73
2021/11/09 03:17:35;;;;;;;;;;;;;;;7.63;100.00;101873.28;5072972;28;19970;-73
2021/11/09 03:20:03;;;;;;;;;;;;;;;7.64;100.00;101878.66;5072902;28;20015;-74
2021/11/09 03:44:32;;;;;;;;;;;;;;;7.59;100.00;101887.91;5072960;28;20015;-73
2021/11/09 03:47:02;;;;;;;;;;;;;;;7.61;100.00;101886.03;5072801;28;19939;-74
2021/11/09 03:49:31;;;;;;;;;;;;;;;7.59;100.00;101893.31;5072034;28;19928;-73
2021/11/09 03:51:58;;;;;;;;;;;;;;;7.57;100.00;101895.25;5072626;28;19932;-73
2021/11/09 03:54:28;;;;;;;;;;;;;;;7.57;100.00;101900.66;5072586;28;20023;-75
2021/11/09 03:56:59;;;;;;;;;;;;;;;7.56;100.00;101893.47;5073040;28;19944;-73
2021/11/09 03:59:36;;;;;;;;;;;;;;;7.58;100.00;101894.31;5072086;28;19971;-73
2021/11/09 04:02:07;;;;;;;;;;;;;;;7.59;100.00;101904.13;5072649;28;19928;-74
2021/11/09 04:04:39;;;;;;;;;;;;;;;7.60;100.00;101904.03;5072874;28;19931;-74
2021/11/09 04:07:10;;;;;;;;;;;;;;;7.61;100.00;101903.09;5072485;28;20443;-73
2021/11/09 04:09:50;;;;;;;;;;;;;;;7.61;100.00;101911.22;5062262;28;19940;-74
2021/11/09 04:12:28;;;;;;;;;;;;;;;7.64;100.00;101908.38;5052181;28;19932;-74
2021/11/09 04:14:59;;;;;;;;;;;;;;;7.65;100.00;101904.69;5052304;28;20031;-74
2021/11/09 04:17:35;;;;;;;;;;;;;;;7.64;100.00;101902.06;5051925;28;20360;-74
2021/11/09 04:20:06;;;;;;;;;;;;;;;7.61;100.00;101903.09;5052276;28;19932;-74
2021/11/09 04:25:35;;;;;;;;;;;;;;;7.59;100.00;101913.13;5050533;28;19925;-73
2021/11/09 04:28:08;;;;;;;;;;;;;;;7.61;100.00;101916.63;5051676;28;19928;-74
2021/11/09 04:30:58;;;;;;;;;;;;;;;7.63;100.00;101917.44;5051868;28;19955;-73
2021/11/09 05:01:31;;;;;;;;;;;;;;;7.62;100.00;101960.75;5087556;28;19932;-71
2021/11/09 05:09:30;;;;;;;;;;;;;;;7.53;100.00;101965.63;5087358;28;19935;-72
2021/11/09 05:11:57;;;;;;;;;;;;;;;7.50;100.00;101973.91;5087893;28;20027;-72
2021/11/09 05:14:24;;;;;;;;;;;;;;;7.46;100.00;101964.19;5087839;28;19924;-71
2021/11/09 05:16:51;;;;;;;;;;;;;;;7.40;100.00;101975.28;5087572;28;19928;-72
2021/11/09 05:19:17;;;;;;;;;;;;;;;7.33;100.00;101974.69;5086323;28;20400;-74
2021/11/09 05:21:43;;;;;;;;;;;;;;;7.27;100.00;101976.81;5085992;28;20023;-72
2021/11/09 05:24:10;;;;;;;;;;;;;;;7.20;100.00;101976.22;5087307;28;20011;-74
2021/11/09 05:26:38;;;;;;;;;;;;;;;7.17;100.00;101982.66;5087431;28;19935;-74
2021/11/09 05:29:04;;;;;;;;;;;;;;;7.17;100.00;101985.34;5087156;28;19925;-74
2021/11/09 05:31:32;;;;;;;;;;;;;;;7.20;100.00;101984.34;5086945;28;20011;-75
2021/11/09 05:33:59;;;;;;;;;;;;;;;7.25;100.00;101989.53;5086898;28;20447;-74
2021/11/09 05:36:31;;;;;;;;;;;;;;;7.26;100.00;101994.84;5087101;28;19924;-74
2021/11/09 05:39:05;;;;;;;;;;;;;;;7.29;100.00;101989.31;5086714;28;20373;-73
2021/11/09 05:41:35;;;;;;;;;;;;;;;7.32;100.00;101994.56;5104467;28;20385;-72
2021/11/09 05:44:02;;;;;;;;;;;;;;;7.30;100.00;101980.25;5107975;28;19935;-73
2021/11/09 05:46:28;;;;;;;;;;;;;;;7.31;100.00;101992.81;5107185;28;19958;-73
2021/11/09 05:48:56;;;;;;;;;;;;;;;7.31;100.00;102000.03;5105939;28;20011;-73
2021/11/09 05:51:23;;;;;;;;;;;;;;;7.32;100.00;101999.97;5101395;28;20007;-73
2021/11/09 05:53:49;;;;;;;;;;;;;;;7.32;100.00;102005.38;5078259;28;19924;-73
2021/11/09 05:56:16;;;;;;;;;;;;;;;7.32;100.00;102004.50;5073595;28;19974;-73
2021/11/09 05:58:43;;;;;;;;;;;;;;;7.29;100.00;102010.91;5075625;28;19955;-74
2021/11/09 06:01:10;;;;;;;;;;;;;;;7.28;100.00;102008.28;5091972;28;19932;-74
2021/11/09 06:03:37;;;;;;;;;;;;;;;7.28;100.00;102017.28;5087282;28;20015;-73
2021/11/09 06:06:04;;;;;;;;;;;;;;;7.29;100.00;102015.44;5074925;28;20019;-73
2021/11/09 06:08:31;;;;;;;;;;;;;;;7.27;100.00;102026.31;5087027;28;20425;-74
2021/11/09 06:10:57;;;;;;;;;;;;;;;7.30;100.00;102030.72;5093067;28;20026;-74
2021/11/09 06:13:23;;;;;;;;;;;;;;;7.31;100.00;102030.63;5093172;28;20030;-74
2021/11/09 06:15:49;;;;;;;;;;;;;;;7.32;100.00;102036.91;5092937;28;19939;-74
2021/11/09 06:18:16;;;;;;;;;;;;;;;7.31;100.00;102041.44;5089698;28;19935;-74
2021/11/09 06:20:42;;;;;;;;;;;;;;;7.32;100.00;102053.13;5092738;28;20003;-74
2021/11/09 06:23:10;;;;;;;;;;;;;;;7.33;100.00;102057.56;5093152;28;20447;-75
2021/11/09 06:25:36;;;;;;;;;;;;;;;7.37;100.00;102048.38;5092194;28;19930;-74
2021/11/09 06:28:04;;;;;;;;;;;;;;;7.37;100.00;102051.94;5092170;28;19947;-73
2021/11/09 06:30:31;;;;;;;;;;;;;;;7.38;100.00;102051.00;5092934;28;20022;-73
2021/11/09 06:32:57;;;;;;;;;;;;;;;7.41;100.00;102063.50;5092021;28;19928;-73
2021/11/09 06:35:23;;;;;;;;;;;;;;;7.42;100.00;102065.25;5074453;28;19932;-73
2021/11/09 06:37:49;;;;;;;;;;;;;;;7.41;100.00;102078.84;5085819;28;20007;-73
2021/11/09 06:40:17;;;;;;;;;;;;;;;7.42;100.00;102081.47;5091324;28;19985;-73
2021/11/09 06:42:44;;;;;;;;;;;;;;;7.43;100.00;102083.22;5092374;28;19930;-73
2021/11/09 06:45:10;;;;;;;;;;;;;;;7.43;100.00;102088.63;5092086;28;19928;-73
2021/11/09 06:47:37;;;;;;;;;;;;;;;7.43;100.00;102091.31;5091838;28;19928;-74
2021/11/09 06:50:04;;;;;;;;;;;;;;;7.47;100.00;102094.75;5074409;28;20363;-73
2021/11/09 06:52:31;;;;;;;;;;;;;;;7.53;100.00;102099.88;5092501;28;19957;-73
2021/11/09 06:54:57;;;;;;;;;;;;;;;7.53;100.00;102106.13;5092618;28;19974;-73
2021/11/09 06:57:25;;;;;;;;;;;;;;;7.53;100.00;102110.69;5092331;28;19930;-73
2021/11/09 06:59:52;;;;;;;;;;;;;;;7.53;100.00;102116.94;5074112;28;20411;-73
2021/11/09 07:02:19;;;;;;;;;;;;;;;7.51;100.00;102121.56;5089909;28;19932;-73
2021/11/09 07:04:45;;;;;;;;;;;;;;;7.53;100.00;102127.75;5089243;28;20029;-73
2021/11/09 07:07:12;;;;;;;;;;;;;;;7.53;100.00;102133.16;5073960;28;19964;-73
2021/11/09 07:09:38;;;;;;;;;;;;;;;7.52;100.00;102136.84;5091312;28;20014;-73
2021/11/09 07:12:04;;;;;;;;;;;;;;;7.54;100.00;102137.63;5073525;28;20027;-73
2021/11/09 07:14:33;;;;;;;;;;;;;;;7.59;100.00;102147.34;5092238;28;20014;-73
2021/11/09 07:16:59;;;;;;;;;;;;;;;7.65;100.00;102147.94;5081404;28;19924;-74
2021/11/09 07:19:26;;;;;;;;;;;;;;;7.77;100.00;102160.00;5082455;28;20505;-73
2021/11/09 07:21:52;;;;;;;;;;;;;;;7.84;100.00;102158.78;5090687;28;20416;-73
2021/11/09 07:24:18;;;;;;;;;;;;;;;7.88;100.00;102160.41;5091683;28;19973;-74
2021/11/09 07:26:45;;;;;;;;;;;;;;;7.87;100.00;102164.03;5091277;28;20415;-74
2021/11/09 07:29:11;;;;;;;;;;;;;;;7.86;100.00;102164.13;5081746;28;20019;-74
2021/11/09 07:31:39;;;;;;;;;;;;;;;7.90;100.00;102163.03;5081473;28;20015;-73
2021/11/09 07:34:05;;;;;;;;;;;;;;;7.85;100.00;102163.22;5082750;28;19924;-73
2021/11/09 07:36:32;;;;;;;;;;;;;;;7.85;100.00;102157.81;5080664;28;19959;-73
2021/11/09 07:38:59;;;;;;;;;;;;;;;7.84;100.00;102164.19;5080001;28;19936;-73
2021/11/09 07:41:25;;;;;;;;;;;;;;;7.88;100.00;102159.50;5082285;28;19924;-73
2021/11/09 07:43:51;;;;;;;;;;;;;;;7.94;100.00;102163.78;5080661;28;19928;-73
2021/11/09 07:46:18;;;;;;;;;;;;;;;7.94;100.00;102166.47;5080774;28;19956;-72
2021/11/09 07:48:46;;;;;;;;;;;;;;;7.98;100.00;102166.25;5081902;28;19928;-72
2021/11/09 07:51:12;;;;;;;;;;;;;;;8.01;100.00;102170.63;5079333;28;20014;-72
2021/11/09 07:53:40;;;;;;;;;;;;;;;8.00;100.00;102174.28;5079524;28;19924;-73
2021/11/09 07:56:16;;;;;;;;;;;;;;;8.00;100.00;102182.38;5081889;28;20007;-73
2021/11/09 07:58:49;;;;;;;;;;;;;;;8.06;100.00;102184.81;5081463;28;20345;-72
2021/11/09 08:01:18;;;;;;;;;;;;;;;8.08;100.00;102185.59;5077305;28;20292;-72
2021/11/09 08:03:48;;;;;;;;;;;;;;;8.13;100.00;102191.69;5071101;28;19935;-72
2021/11/09 08:06:21;;;;;;;;;;;;;;;8.16;100.00;102202.38;5071402;28;19924;-72
2021/11/09 08:08:59;;;;;;;;;;;;;;;8.21;100.00;102210.25;5052805;28;20217;-72
2021/11/09 08:11:28;;;;;;;;;;;;;;;8.24;100.00;102207.38;5071147;28;19929;-73
2021/11/09 08:13:54;;;;;;;;;;;;;;;8.21;100.00;102205.69;5086929;28;20005;-73
2021/11/09 08:16:20;;;;;;;;;;;;;;;8.15;100.00;102208.72;5090873;28;20094;-73
2021/11/09 08:18:48;;;;;;;;;;;;;;;8.16;100.00;102204.19;5072700;28;20031;-72
2021/11/09 08:21:15;;;;;;;;;;;;;;;8.19;100.00;102210.31;5090921;28;19924;-73
2021/11/09 08:23:41;;;;;;;;;;;;;;;8.24;100.00;102206.53;5091206;28;20019;-73
2021/11/09 08:26:07;;;;;;;;;;;;;;;8.27;100.00;102203.66;5091022;28;19960;-72
2021/11/09 08:28:34;;;;;;;;;;;;;;;8.27;100.00;102204.56;5090667;28;20026;-72
2021/11/09 08:31:06;;;;;;;;;;;;;;;8.29;100.00;102204.47;5090691;28;19935;-72
2021/11/09 08:33:32;;;;;;;;;;;;;;;8.30;100.00;102207.09;5090720;28;19935;-72
2021/11/09 08:36:03;;;;;;;;;;;;;;;8.38;100.00;102206.75;5085804;28;19951;-72
2021/11/09 08:38:30;;;;;;;;;;;;;;;8.40;100.00;102212.94;5078211;28;20413;-73
2021/11/09 08:40:59;;;;;;;;;;;;;;;8.43;100.00;102212.81;5061830;28;19934;-72
2021/11/09 08:43:29;;;;;;;;;;;;;;;8.45;100.00;102213.63;5090072;28;19971;-73
2021/11/09 08:45:58;;;;;;;;;;;;;;;8.38;100.00;102207.59;5082074;28;19974;-74
2021/11/09 08:48:26;;;;;;;;;;;;;;;8.35;100.00;102210.47;5090102;28;19924;-72
2021/11/09 08:50:54;;;;;;;;;;;;;;;8.31;100.00;102210.69;5089517;28;20461;-72
2021/11/09 08:53:26;;;;;;;;;;;;;;;8.33;100.00;102212.34;5080356;28;19943;-72
2021/11/09 08:56:17;;;;;;;;;;;;;;;8.32;100.00;102223.25;5080897;28;19928;-72
2021/11/09 09:04:20;;;;;;;;;;;;;;;8.49;100.00;102217.06;5090175;28;19924;-73
2021/11/09 09:06:47;;;;;;;;;;;;;;;8.54;100.00;102215.88;5079214;28;20359;-72
2021/11/09 09:09:16;;;;;;;;;;;;;;;8.58;100.00;102219.34;5081180;28;20007;-72
2021/11/09 09:11:43;;;;;;;;;;;;;;;8.59;100.00;102220.19;5090089;28;20408;-72
2021/11/09 09:14:10;;;;;;;;;;;;;;;8.67;100.00;102226.09;5089936;28;19971;-72
2021/11/09 09:16:38;;;;;;;;;;;;;;;8.80;100.00;102224.53;5090386;28;19928;-72
2021/11/09 09:19:05;;;;;;;;;;;;;;;8.81;100.00;102214.59;5089306;28;19989;-72
2021/11/09 09:21:36;;;;;;;;;;;;;;;8.84;100.00;102218.00;5090482;28;19928;-73
2021/11/09 09:24:08;;;;;;;;;;;;;;;8.86;100.00;102213.41;5090671;28;19928;-72
2021/11/09 09:26:39;;;;;;;;;;;;;;;8.90;100.00;102221.38;5090308;28;19928;-72
2021/11/09 09:29:17;;;;;;;;;;;;;;;8.90;100.00;102218.66;5094122;28;19928;-72
2021/11/09 09:31:53;;;;;;;;;;;;;;;8.93;100.00;102216.69;5094249;28;19924;-72
2021/11/09 09:53:54;;;;;;;;;;;;;;;9.01;100.00;102228.00;5093757;28;19953;-73
2021/11/09 09:56:21;;;;;;;;;;;;;;;9.06;100.00;102222.38;5093804;28;19924;-73
2021/11/09 09:58:49;;;;;;;;;;;;;;;9.12;100.00;102229.31;5093402;28;20017;-73
2021/11/09 10:01:17;;;;;;;;;;;;;;;9.24;100.00;102238.63;5092988;28;20019;-74
2021/11/09 10:03:44;;;;;;;;;;;;;;;9.26;100.00;102237.59;5093526;28;20015;-73
2021/11/09 10:06:11;;;;;;;;;;;;;;;9.32;100.00;102233.69;5093494;28;20353;-73
2021/11/09 10:08:41;;;;;;;;;;;;;;;9.40;100.00;102228.75;5093160;28;20031;-74
2021/11/09 10:11:08;;;;;;;;;;;;;;;9.51;100.00;102231.78;5093261;28;19935;-74
2021/11/09 10:13:38;;;;;;;;;;;;;;;9.55;100.00;102227.94;5088629;28;20349;-73
2021/11/09 10:16:14;;;;;;;;;;;;;;;9.50;100.00;102231.84;5082396;28;19931;-73
2021/11/09 10:18:43;;;;;;;;;;;;;;;9.47;100.00;102235.56;5086424;28;20403;-68
2021/11/09 10:21:10;;;;;;;;;;;;;;;9.54;100.00;102242.44;5086177;28;19928;-68
2021/11/09 10:23:36;;;;;;;;;;;;;;;9.59;100.00;102254.88;5083389;28;19931;-68
2021/11/09 10:26:09;;;;;;;;;;;;;;;9.55;100.00;102259.59;5081592;28;20463;-68
2021/11/09 10:28:35;;;;;;;;;;;;;;;9.57;100.00;102263.09;5082147;28;20019;-68
2021/11/09 10:31:02;;;;;;;;;;;;;;;9.49;100.00;102254.50;5080622;28;19971;-68
2021/11/09 10:33:34;;;;;;;;;;;;;;;9.41;100.00;102254.00;5083379;28;19928;-68
2021/11/09 10:36:01;;;;;;;;;;;;;;;9.39;100.00;102262.22;5089317;28;19928;-69
2021/11/09 10:38:30;;;;;;;;;;;;;;;9.47;100.00;102265.41;5092395;28;20020;-69
2021/11/09 10:40:57;;;;;;;;;;;;;;;9.65;100.00;102260.84;5086512;28;19932;-69
2021/11/09 10:43:24;;;;;;;;;;;;;;;9.83;100.00;102258.13;5082290;28;19971;-68
2021/11/09 10:45:50;;;;;;;;;;;;;;;9.86;100.00;102253.41;5082796;28;20041;-69
2021/11/09 10:48:17;;;;;;;;;;;;;;;9.78;100.00;102249.34;5092028;28;19978;-69
2021/11/09 10:50:46;;;;;;;;;;;;;;;9.74;100.00;102251.38;5092308;28;19960;-68
2021/11/09 10:53:14;;;;;;;;;;;;;;;9.87;100.00;102255.16;5092123;28;19951;-68
2021/11/09 10:55:53;;;;;;;;;;;;;;;10.05;100.00;102247.00;5089561;28;20024;-68
2021/11/09 10:58:27;;;;;;;;;;;;;;;10.18;100.00;102237.22;5089338;28;20411;-68
2021/11/09 11:03:15;;;;;;;;;;;;;;;10.31;100.00;102236.50;5092500;28;20008;-66
2021/11/09 11:03:56;;;;;;;;;;;;;;;10.46;100.00;102232.97;5092194;28;19924;-68
2021/11/09 11:06:25;;;;;;;;;;;;;;;10.52;100.00;102220.88;5092480;28;19935;-68
2021/11/09 11:08:53;;;;;;;;;;;;;;;10.77;100.00;102217.63;5091966;28;19963;-68
2021/11/09 11:11:20;;;;;;;;;;;;;;;10.80;100.00;102222.88;5092234;28;20028;-68
2021/11/09 11:13:46;;;;;;;;;;;;;;;10.93;100.00;102222.16;5091870;28;19924;-67
2021/11/09 11:16:14;;;;;;;;;;;;;;;10.90;100.00;102225.91;5073687;28;20377;-68
2021/11/09 11:18:42;;;;;;;;;;;;;;;10.90;100.00;102220.47;5091925;28;20031;-67
2021/11/09 11:21:09;;;;;;;;;;;;;;;10.85;100.00;102215.34;5092047;28;20308;-68
2021/11/09 11:23:38;;;;;;;;;;;;;;;10.90;100.00;102217.75;5091892;28;19928;-68
2021/11/09 11:26:05;;;;;;;;;;;;;;;10.77;100.00;102216.72;5091988;28;19950;-68
2021/11/09 11:28:32;;;;;;;;;;;;;;;10.64;100.00;102222.88;5091711;28;19928;-69
2021/11/09 11:30:59;;;;;;;;;;;;;;;10.54;100.00;102218.94;5091858;28;20447;-68
2021/11/09 11:33:26;;;;;;;;;;;;;;;10.46;100.00;102218.50;5091561;28;20011;-68
2021/11/09 11:35:52;;;;;;;;;;;;;;;10.29;100.00;102227.56;5091892;28;19924;-68
2021/11/09 11:38:20;;;;;;;;;;;;;;;10.17;100.00;102227.31;5091593;28;19957;-68
2021/11/09 11:40:48;;;;;;;;;;;;;;;10.12;100.00;102218.53;5091449;28;20412;-68
2021/11/09 11:43:15;;;;;;;;;;;;;;;10.08;100.00;102224.25;5091509;28;20339;-68
2021/11/09 11:45:45;;;;;;;;;;;;;;;9.98;100.00;102216.59;5091263;28;20356;-68
2021/11/09 11:48:12;;;;;;;;;;;;;;;10.01;100.00;102219.16;5091209;28;19924;-68
2021/11/09 11:50:39;;;;;;;;;;;;;;;10.10;100.00;102212.34;5090530;28;20385;-68
2021/11/09 11:53:05;;;;;;;;;;;;;;;10.22;100.00;102211.66;5091338;28;20030;-68
2021/11/09 11:55:32;;;;;;;;;;;;;;;10.42;100.00;102206.94;5073259;28;19950;-68
2021/11/09 11:58:05;;;;;;;;;;;;;;;10.55;100.00;102191.72;5091043;28;20010;-68
2021/11/09 12:00:40;;;;;;;;;;;;;;;10.67;100.00;102197.41;5091172;28;19924;-68
2021/11/09 12:03:21;;;;;;;;;;;;;;;10.98;100.00;102193.75;5090619;28;19932;-69
2021/11/09 12:05:49;;;;;;;;;;;;;;;11.35;100.00;102187.94;5070273;28;20344;-68
2021/11/09 12:08:16;;;;;;;;;;;;;;;11.81;100.00;102187.78;5070542;28;19928;-68
2021/11/09 12:10:44;;;;;;;;;;;;;;;12.20;100.00;102167.16;5070620;28;20010;-68
2021/11/09 12:13:13;;;;;;;;;;;;;;;12.47;100.00;102166.31;5070923;28;20067;-68
2021/11/09 12:15:51;;;;;;;;;;;;;;;12.31;100.00;102176.50;5074833;28;19956;-68
2021/11/09 12:18:35;;;;;;;;;;;;;;;11.84;100.00;102176.69;5090874;28;19930;-68
2021/11/09 12:21:02;;;;;;;;;;;;;;;11.61;100.00;102174.53;5091521;28;19963;-68
2021/11/09 12:23:30;;;;;;;;;;;;;;;11.33;100.00;102176.25;5090853;28;19959;-68
2021/11/09 12:25:56;;;;;;;;;;;;;;;11.22;100.00;102172.38;5090514;28;19928;-66
2021/11/09 12:28:32;;;;;;;;;;;;;;;11.15;100.00;102165.53;5090566;28;19985;-66
2021/11/09 12:30:59;;;;;;;;;;;;;;;11.03;100.00;102169.00;5089292;28;20073;-66
2021/11/09 12:33:27;;;;;;;;;;;;;;;11.00;100.00;102163.78;5090678;28;20019;-66
2021/11/09 12:36:10;;;;;;;;;;;;;;;11.04;100.00;102168.06;5090089;28;19924;-69
2021/11/09 12:38:38;;;;;;;;;;;;;;;11.12;100.00;102162.16;5089707;28;20007;-68
2021/11/09 12:41:10;;;;;;;;;;;;;;;10.99;100.00;102156.59;5089343;28;19924;-68
2021/11/09 12:43:45;;;;;;;;;;;;;;;10.78;100.00;102159.59;5070638;28;20351;-69
2021/11/09 12:46:15;;;;;;;;;;;;;;;10.79;100.00;102155.06;5085404;28;19970;-69
2021/11/09 12:48:49;;;;;;;;;;;;;;;10.77;100.00;102152.44;5090230;28;20441;-69
2021/11/09 12:51:15;;;;;;;;;;;;;;;10.84;100.00;102155.66;5090140;28;19974;-69
2021/11/09 12:53:43;;;;;;;;;;;;;;;10.69;100.00;102160.19;5090219;28;19928;-68
2021/11/09 12:56:12;;;;;;;;;;;;;;;11.02;100.00;102145.53;5090315;28;19956;-68
2021/11/09 12:58:47;;;;;;;;;;;;;;;11.11;100.00;102147.69;5090993;28;20333;-68
2021/11/09 13:01:22;;;;;;;;;;;;;;;11.15;100.00;102149.25;5076912;28;20034;-69
2021/11/09 13:03:58;;;;;;;;;;;;;;;11.01;100.00;102149.19;5095211;28;19967;-69
2021/11/09 13:06:45;;;;;;;;;;;;;;;10.85;100.00;102150.13;5095021;28;20011;-69
2021/11/09 13:09:20;;;;;;;;;;;;;;;10.66;100.00;102139.50;5094268;28;19931;-69
2021/11/09 13:11:50;;;;;;;;;;;;;;;10.59;100.00;102139.94;5094296;28;19985;-69
2021/11/09 13:14:19;;;;;;;;;;;;;;;10.50;100.00;102144.06;5094312;28;19955;-68
2021/11/09 13:16:47;;;;;;;;;;;;;;;10.71;100.00;102137.38;5097423;28;20400;-69
2021/11/09 13:19:13;;;;;;;;;;;;;;;10.94;100.00;102136.97;5094092;28;19930;-69
2021/11/09 13:21:40;;;;;;;;;;;;;;;10.96;100.00;102132.31;5109876;28;19924;-69
2021/11/09 13:24:08;;;;;;;;;;;;;;;10.88;100.00;102136.38;5093546;28;19935;-68
2021/11/09 13:26:35;;;;;;;;;;;;;;;10.80;100.00;102135.94;5094363;28;19936;-69
2021/11/09 13:29:06;;;;;;;;;;;;;;;10.67;100.00;102137.66;5093821;28;20397;-69
2021/11/09 13:31:35;;;;;;;;;;;;;;;10.62;100.00;102137.94;5093911;28;19931;-69
2021/11/09 13:34:02;;;;;;;;;;;;;;;10.59;100.00;102138.09;5094138;28;19935;-68
2021/11/09 13:36:29;;;;;;;;;;;;;;;10.68;100.00;102132.13;5093817;28;20005;-68
2021/11/09 13:38:57;;;;;;;;;;;;;;;10.88;100.00;102130.94;5093440;28;20484;-69
2021/11/09 13:41:30;;;;;;;;;;;;;;;11.03;100.00;102141.84;5093588;28;19931;-69
2021/11/09 13:43:58;;;;;;;;;;;;;;;11.05;100.00;102146.22;5093425;28;19925;-69
2021/11/09 13:46:26;;;;;;;;;;;;;;;11.03;100.00;102139.13;5093910;28;20694;-67
2021/11/09 13:48:55;;;;;;;;;;;;;;;10.95;100.00;102138.72;5093559;28;19931;-67
2021/11/09 13:51:24;;;;;;;;;;;;;;;10.84;100.00;102136.66;5093910;28;20436;-68
2021/11/09 13:53:54;;;;;;;;;;;;;;;10.79;100.00;102136.06;5093685;28;19960;-67
2021/11/09 13:56:23;;;;;;;;;;;;;;;10.73;100.00;102134.59;5093360;28;20027;-67
2021/11/09 13:58:56;;;;;;;;;;;;;;;10.55;100.00;102137.44;5093134;28;20352;-67
2021/11/09 14:01:31;;;;;;;;;;;;;;;10.40;100.00;102135.59;5093321;28;19978;-68
2021/11/09 14:04:05;;;;;;;;;;;;;;;10.21;100.00;102139.34;5093271;28;19924;-69